KDMN/DMN METAR and TAF weather

Enter ICAO airport designator
Station Type Date Time Source
KDMN METAR 2022/11/30 15:53 UTC NOAA

KDMN 301553Z AUTO 07009KT 10SM CLR 08/M07 A3022 RMK AO2 SLP210 T00781067


Station Type Date Time Source
KDMN Decoded METAR 2022/11/30 15:53 UTC NOAA

DEMING MUNICIPAL AIRPORT, NM, United States (KDMN) 32-16N 107-43W 1311M
Nov 30, 2022 - 10:53 AM EST / 2022.11.30 1553 UTC
Wind: from the ENE (070 degrees) at 10 MPH (9 KT):0
Visibility: 10 mile(s):0
Sky conditions: clear
Temperature: 46.0 F (7.8 C)
Dew Point: 19.9 F (-6.7 C)
Relative Humidity: 35%
Pressure (altimeter): 30.22 in. Hg (1023 hPa)
ob: KDMN 301553Z AUTO 07009KT 10SM CLR 08/M07 A3022 RMK AO2 SLP210 T00781067
cycle: 16

Station Type Date Time Source
KDMN TAF 2022/11/30 12:40 UTC NOAA

TAF KDMN 301138Z 3012/0112 05005KT P6SM SCT200
FM302100 10007KT P6SM BKN250

Example: see airport list